Time;durP1;ratioP1;P1;durP2;ratioP2;P2;SDS_P1;SDS_P2;PMS_P1;PMS_P2;Temp;Humidity;BMP_temperature;BMP_pressure;BME280_temperature;BME280_humidity;BME280_pressure;Samples;Min_cycle;Max_cycle;Signal;HPM_P1;HPM_P2
2021/08/27 00:00:51;;;;;;;1.20;0.50;;;16.60;99.90;;;;;;5093984;28;20787;-59
2021/08/27 00:03:18;;;;;;;0.80;0.40;;;16.60;99.90;;;;;;5094336;28;20885;-58
2021/08/27 00:05:45;;;;;;;0.70;0.50;;;16.60;99.90;;;;;;5095652;28;20670;-59
2021/08/27 00:08:12;;;;;;;0.80;0.45;;;16.50;99.90;;;;;;5095768;28;20517;-58
2021/08/27 00:10:39;;;;;;;0.60;0.40;;;16.40;99.90;;;;;;5095855;28;20424;-58
2021/08/27 00:13:06;;;;;;;0.70;0.50;;;16.40;99.90;;;;;;5095691;28;20571;-59
2021/08/27 00:15:34;;;;;;;1.45;0.50;;;16.40;99.90;;;;;;5095787;28;20549;-59
2021/08/27 00:18:01;;;;;;;1.50;0.50;;;16.40;99.90;;;;;;5095583;28;20426;-59
2021/08/27 00:20:28;;;;;;;0.90;0.50;;;16.40;99.90;;;;;;5097064;28;20500;-59
2021/08/27 00:22:55;;;;;;;0.60;0.40;;;16.40;99.90;;;;;;5096185;28;20521;-59
2021/08/27 00:25:22;;;;;;;1.13;0.40;;;16.20;99.90;;;;;;5095689;28;20414;-59
2021/08/27 00:27:49;;;;;;;0.77;0.40;;;16.30;99.90;;;;;;5093281;28;20418;-58
2021/08/27 00:30:16;;;;;;;0.60;0.40;;;16.40;99.90;;;;;;5093120;28;20808;-58
2021/08/27 00:32:45;;;;;;;1.00;0.50;;;16.50;99.90;;;;;;5092897;28;20517;-59
2021/08/27 00:35:12;;;;;;;1.73;0.40;;;16.60;99.90;;;;;;5093290;28;20517;-59
2021/08/27 00:37:38;;;;;;;0.98;0.50;;;16.40;99.90;;;;;;5093000;28;20465;-59
2021/08/27 00:40:07;;;;;;;1.15;0.43;;;16.30;99.90;;;;;;5093751;28;20900;-59
2021/08/27 00:42:34;;;;;;;1.00;0.50;;;16.20;99.90;;;;;;5093171;28;20425;-57
2021/08/27 00:45:01;;;;;;;1.00;0.50;;;16.10;99.90;;;;;;5095243;28;20873;-58
2021/08/27 00:47:28;;;;;;;6.30;0.50;;;16.00;99.90;;;;;;5094955;28;20413;-59
2021/08/27 00:49:56;;;;;;;1.20;0.50;;;16.30;99.90;;;;;;5094128;28;20574;-59
2021/08/27 00:52:24;;;;;;;0.90;0.45;;;16.50;99.90;;;;;;5094204;28;20852;-58
2021/08/27 00:54:53;;;;;;;1.10;0.50;;;16.70;99.90;;;;;;5093976;28;20711;-58
2021/08/27 00:57:20;;;;;;;0.70;0.40;;;16.70;99.90;;;;;;5094179;28;20711;-58
2021/08/27 00:59:47;;;;;;;1.08;0.40;;;16.80;99.90;;;;;;5093531;28;20432;-59
2021/08/27 01:02:14;;;;;;;1.08;0.47;;;16.90;99.90;;;;;;5093844;28;20418;-59
2021/08/27 01:04:42;;;;;;;0.85;0.50;;;16.90;99.90;;;;;;5095578;28;20421;-59
2021/08/27 01:07:16;;;;;;;1.13;0.50;;;16.90;99.90;;;;;;5096393;28;20422;-59
2021/08/27 01:09:51;;;;;;;0.70;0.50;;;16.80;99.90;;;;;;5095597;28;20520;-59
2021/08/27 01:12:26;;;;;;;1.05;0.70;;;16.80;99.90;;;;;;5095925;28;20871;-58
2021/08/27 01:14:57;;;;;;;0.70;0.45;;;16.80;99.90;;;;;;5096567;28;20732;-58
2021/08/27 01:17:29;;;;;;;0.80;0.50;;;16.90;99.90;;;;;;5096229;28;20425;-59
2021/08/27 01:20:54;;;;;;;0.90;0.50;;;16.90;99.90;;;;;;5096210;28;20859;-59
2021/08/27 01:23:34;;;;;;;1.60;0.50;;;16.80;99.90;;;;;;5059534;28;20428;-58
2021/08/27 01:26:03;;;;;;;1.20;0.50;;;16.90;99.90;;;;;;5096144;28;20421;-58
2021/08/27 01:28:31;;;;;;;1.70;0.50;;;16.80;99.90;;;;;;5096529;28;20430;-58
2021/08/27 01:31:18;;;;;;;1.10;0.50;;;16.80;99.90;;;;;;5095874;28;20432;-58
2021/08/27 01:33:56;;;;;;;0.90;0.50;;;16.80;99.90;;;;;;5095757;28;20430;-58
2021/08/27 01:36:26;;;;;;;2.90;0.50;;;16.80;99.90;;;;;;5095589;28;20422;-58
2021/08/27 01:38:56;;;;;;;1.30;0.50;;;16.70;99.90;;;;;;5095868;28;20436;-58
2021/08/27 01:41:25;;;;;;;0.80;0.50;;;16.70;99.90;;;;;;5095942;28;20418;-59
2021/08/27 01:43:53;;;;;;;1.60;0.50;;;16.80;99.90;;;;;;5095490;28;20426;-59
2021/08/27 01:46:21;;;;;;;1.30;0.50;;;16.80;99.90;;;;;;5095802;28;20504;-58
2021/08/27 01:48:49;;;;;;;2.00;0.40;;;16.80;99.90;;;;;;5095527;28;20425;-59
2021/08/27 01:51:17;;;;;;;1.08;0.60;;;16.80;99.90;;;;;;5095836;28;20851;-59
2021/08/27 01:53:46;;;;;;;1.38;0.50;;;16.80;99.90;;;;;;5095070;28;20448;-58
2021/08/27 01:56:14;;;;;;;1.00;0.50;;;16.80;99.90;;;;;;5095001;28;20436;-59
2021/08/27 01:58:41;;;;;;;1.70;0.50;;;16.80;99.90;;;;;;5095793;28;20908;-59
2021/08/27 02:01:08;;;;;;;0.90;0.50;;;16.80;99.90;;;;;;5095349;28;20420;-59
2021/08/27 02:03:36;;;;;;;1.80;0.50;;;16.90;99.90;;;;;;5095332;28;20428;-59
2021/08/27 02:06:03;;;;;;;0.80;0.60;;;16.80;99.90;;;;;;5093922;28;20508;-59
2021/08/27 02:08:32;;;;;;;0.80;0.50;;;16.80;99.90;;;;;;5092187;28;20871;-59
2021/08/27 02:11:01;;;;;;;2.83;0.57;;;16.70;99.90;;;;;;5091962;28;20420;-59
2021/08/27 02:13:30;;;;;;;2.00;0.50;;;16.60;99.90;;;;;;5094091;28;20918;-58
2021/08/27 02:15:57;;;;;;;1.10;0.50;;;16.60;99.90;;;;;;5093723;28;20519;-59
2021/08/27 02:18:24;;;;;;;0.70;0.50;;;16.60;99.90;;;;;;5093550;28;20430;-59
2021/08/27 02:20:53;;;;;;;1.10;0.50;;;16.50;99.90;;;;;;5093141;28;20421;-58
2021/08/27 02:23:23;;;;;;;0.60;0.50;;;16.60;99.90;;;;;;5093915;28;20428;-59
2021/08/27 02:25:53;;;;;;;1.00;0.60;;;16.60;99.90;;;;;;5093339;28;20687;-58
2021/08/27 02:28:23;;;;;;;2.30;0.50;;;16.70;99.90;;;;;;5093504;28;20784;-59
2021/08/27 02:30:51;;;;;;;1.50;0.60;;;16.80;99.90;;;;;;5093123;28;20779;-59
2021/08/27 02:33:19;;;;;;;1.83;0.60;;;16.90;99.90;;;;;;5092580;28;20953;-59
2021/08/27 02:35:47;;;;;;;0.80;0.50;;;16.80;99.90;;;;;;5093959;28;20430;-59
2021/08/27 02:38:18;;;;;;;1.00;0.60;;;16.80;99.90;;;;;;5094288;28;20437;-59
2021/08/27 02:40:45;;;;;;;2.30;0.60;;;16.80;99.90;;;;;;5094898;28;20777;-59
2021/08/27 02:43:12;;;;;;;1.30;0.60;;;16.80;99.90;;;;;;5094643;28;20425;-59
2021/08/27 02:45:41;;;;;;;1.55;0.60;;;16.60;99.90;;;;;;5094465;28;20504;-59
2021/08/27 02:48:09;;;;;;;1.58;0.60;;;16.60;99.90;;;;;;5094706;28;20433;-59
2021/08/27 02:50:41;;;;;;;0.90;0.60;;;16.60;99.90;;;;;;5094458;28;20414;-59
2021/08/27 02:53:13;;;;;;;1.75;0.60;;;16.70;99.90;;;;;;5094444;28;20428;-59
2021/08/27 02:55:44;;;;;;;0.82;0.50;;;16.70;99.90;;;;;;5093991;28;20859;-59
2021/08/27 02:58:13;;;;;;;0.90;0.60;;;16.70;99.90;;;;;;5092812;28;20723;-58
2021/08/27 03:00:51;;;;;;;1.30;0.57;;;16.80;99.90;;;;;;5094602;28;20849;-59
2021/08/27 03:03:19;;;;;;;1.00;0.60;;;16.70;99.90;;;;;;5096847;28;20459;-59
2021/08/27 03:05:48;;;;;;;1.60;0.60;;;16.70;99.90;;;;;;5096508;28;20409;-59
2021/08/27 03:08:19;;;;;;;0.80;0.50;;;16.70;99.90;;;;;;5096088;28;20436;-59
2021/08/27 03:10:52;;;;;;;1.20;0.90;;;16.70;99.90;;;;;;5096612;28;20513;-59
2021/08/27 03:13:26;;;;;;;1.10;0.60;;;16.70;99.90;;;;;;5097694;28;20781;-59
2021/08/27 03:15:59;;;;;;;0.93;0.50;;;16.70;99.90;;;;;;5097904;28;20461;-59
2021/08/27 03:18:33;;;;;;;0.90;0.60;;;16.70;99.90;;;;;;5098126;28;20720;-59
2021/08/27 03:21:07;;;;;;;1.50;0.70;;;16.60;99.90;;;;;;5096981;28;20502;-59
2021/08/27 03:23:36;;;;;;;1.17;0.63;;;16.40;99.90;;;;;;5097737;28;20437;-59
2021/08/27 03:26:05;;;;;;;1.10;0.70;;;16.30;99.90;;;;;;5098631;28;20504;-59
2021/08/27 03:28:40;;;;;;;2.08;0.70;;;16.40;99.90;;;;;;5098024;28;20448;-62
2021/08/27 03:31:09;;;;;;;2.22;0.70;;;16.40;99.90;;;;;;5098552;28;20424;-58
2021/08/27 03:33:37;;;;;;;1.10;0.70;;;16.40;99.90;;;;;;5097843;28;20515;-59
2021/08/27 03:36:05;;;;;;;1.00;0.70;;;16.40;99.90;;;;;;5098094;28;20436;-58
2021/08/27 03:38:34;;;;;;;1.23;0.90;;;16.30;99.90;;;;;;5098357;28;20433;-59
2021/08/27 03:41:01;;;;;;;1.38;0.70;;;16.30;99.90;;;;;;5098120;28;20422;-59
2021/08/27 03:43:28;;;;;;;2.00;0.90;;;16.30;99.90;;;;;;5098209;28;20438;-59
2021/08/27 03:45:56;;;;;;;2.60;0.90;;;16.10;99.90;;;;;;5097301;28;20418;-60
2021/08/27 03:48:24;;;;;;;3.03;0.90;;;16.00;99.90;;;;;;5096391;28;20436;-59
2021/08/27 03:50:53;;;;;;;1.20;0.80;;;16.00;99.90;;;;;;5096160;28;20733;-59
2021/08/27 03:53:21;;;;;;;1.10;0.82;;;16.10;99.90;;;;;;5097072;28;20434;-59
2021/08/27 03:55:50;;;;;;;1.70;1.00;;;16.20;99.90;;;;;;5096573;28;20925;-59
2021/08/27 03:58:19;;;;;;;1.40;1.00;;;16.10;99.90;;;;;;5097194;28;20846;-59
2021/08/27 04:00:47;;;;;;;1.55;0.90;;;15.80;99.90;;;;;;5097410;28;20509;-59
2021/08/27 04:03:14;;;;;;;1.80;0.90;;;15.70;99.90;;;;;;5097400;28;20430;-59
2021/08/27 04:05:58;;;;;;;2.22;0.80;;;15.70;99.90;;;;;;5097386;28;20501;-58
2021/08/27 04:08:25;;;;;;;1.70;0.70;;;16.00;99.90;;;;;;5097543;28;20512;-58
2021/08/27 04:10:52;;;;;;;1.70;0.90;;;16.10;99.90;;;;;;5097689;28;20418;-58
2021/08/27 04:13:19;;;;;;;1.10;0.80;;;16.20;99.90;;;;;;5097210;28;20465;-59
2021/08/27 04:15:46;;;;;;;1.52;0.80;;;16.30;99.90;;;;;;5097576;28;20430;-59
2021/08/27 04:18:12;;;;;;;1.20;0.80;;;16.50;99.90;;;;;;5097270;28;20842;-59
2021/08/27 04:20:39;;;;;;;1.90;0.90;;;16.60;99.90;;;;;;5097154;28;20516;-59
2021/08/27 04:23:07;;;;;;;1.15;0.80;;;16.50;99.90;;;;;;5097093;28;20794;-59
2021/08/27 04:25:35;;;;;;;1.50;0.70;;;16.10;99.90;;;;;;5096948;28;21068;-59
2021/08/27 04:28:01;;;;;;;1.75;0.80;;;16.20;99.90;;;;;;5097115;28;20422;-59
2021/08/27 04:30:29;;;;;;;1.10;0.70;;;16.20;99.90;;;;;;5096979;28;20807;-59
2021/08/27 04:32:55;;;;;;;1.40;0.80;;;16.40;99.90;;;;;;5095807;28;20505;-59
2021/08/27 04:35:22;;;;;;;1.13;0.70;;;16.40;99.90;;;;;;5095326;28;20426;-60
2021/08/27 04:37:49;;;;;;;1.10;0.70;;;16.30;99.90;;;;;;5094809;28;20459;-60
2021/08/27 04:40:17;;;;;;;2.10;0.80;;;16.40;99.90;;;;;;5095099;28;20729;-59
2021/08/27 04:42:44;;;;;;;0.90;0.60;;;16.30;99.90;;;;;;5095062;28;20953;-59
2021/08/27 04:45:11;;;;;;;1.00;0.70;;;16.40;99.90;;;;;;5094697;28;20517;-59
2021/08/27 04:47:38;;;;;;;1.17;0.80;;;16.70;99.90;;;;;;5095451;28;20737;-59
2021/08/27 04:50:07;;;;;;;1.30;0.70;;;16.60;99.90;;;;;;5096915;28;20418;-59
2021/08/27 04:52:34;;;;;;;2.20;0.90;;;16.70;99.90;;;;;;5096610;28;20916;-59
2021/08/27 04:55:01;;;;;;;1.00;0.70;;;16.70;99.90;;;;;;5095942;28;20426;-60
2021/08/27 04:57:30;;;;;;;1.20;0.80;;;16.60;99.90;;;;;;5096381;28;20865;-60
2021/08/27 04:59:57;;;;;;;1.30;0.90;;;16.60;99.90;;;;;;5096135;28;20864;-59
2021/08/27 05:02:24;;;;;;;1.33;0.70;;;16.50;99.90;;;;;;5095626;28;20418;-59
2021/08/27 05:04:51;;;;;;;1.30;0.90;;;16.60;99.90;;;;;;5095392;28;20508;-59
2021/08/27 05:07:18;;;;;;;2.50;0.80;;;16.50;99.90;;;;;;5095389;28;20451;-59
2021/08/27 05:09:44;;;;;;;1.52;1.00;;;16.50;99.90;;;;;;5094521;28;20430;-59
2021/08/27 05:12:11;;;;;;;2.15;0.90;;;16.50;99.90;;;;;;5095420;28;20453;-60
2021/08/27 05:14:40;;;;;;;3.40;1.40;;;16.60;99.90;;;;;;5094700;28;20520;-59
2021/08/27 05:17:06;;;;;;;2.50;1.10;;;16.30;99.90;;;;;;5095286;28;20418;-59
2021/08/27 05:19:33;;;;;;;2.85;1.40;;;16.00;99.90;;;;;;5095605;28;20432;-60
2021/08/27 05:22:00;;;;;;;2.90;1.10;;;15.80;99.90;;;;;;5096589;28;20501;-60
2021/08/27 05:24:27;;;;;;;2.20;1.10;;;16.00;99.90;;;;;;5095745;28;20717;-60
2021/08/27 05:26:54;;;;;;;2.30;1.20;;;16.10;99.90;;;;;;5096052;28;20420;-60
2021/08/27 05:29:21;;;;;;;2.80;1.70;;;16.10;99.90;;;;;;5095456;28;20425;-60
2021/08/27 05:31:49;;;;;;;3.05;1.80;;;16.10;99.90;;;;;;5094824;28;20418;-60
2021/08/27 05:34:19;;;;;;;2.40;1.30;;;16.00;99.90;;;;;;5092168;28;20426;-59
2021/08/27 05:36:46;;;;;;;2.70;1.50;;;15.70;99.90;;;;;;5092782;28;20538;-61
2021/08/27 05:39:13;;;;;;;3.00;1.50;;;16.00;99.90;;;;;;5093587;28;20790;-60
2021/08/27 05:41:40;;;;;;;1.80;1.20;;;16.10;99.90;;;;;;5093573;28;20422;-60
2021/08/27 05:44:07;;;;;;;3.85;1.40;;;16.20;99.90;;;;;;5093377;28;20585;-60
2021/08/27 05:46:34;;;;;;;2.80;1.40;;;16.30;99.90;;;;;;5092465;28;20413;-60
2021/08/27 05:49:02;;;;;;;3.95;1.70;;;16.30;99.90;;;;;;5093632;28;20509;-62
2021/08/27 05:51:29;;;;;;;2.50;1.33;;;16.20;99.90;;;;;;5093772;28;20424;-62
2021/08/27 05:53:56;;;;;;;2.30;1.10;;;16.00;99.90;;;;;;5094401;28;20428;-62
2021/08/27 05:56:23;;;;;;;1.73;1.25;;;16.20;99.90;;;;;;5095455;28;20429;-62
2021/08/27 05:58:50;;;;;;;1.80;1.27;;;16.30;99.90;;;;;;5095024;28;20523;-63
2021/08/27 06:01:16;;;;;;;3.90;1.30;;;16.10;99.90;;;;;;5095078;28;20414;-62
2021/08/27 06:03:43;;;;;;;1.40;1.00;;;16.10;99.90;;;;;;5095589;28;20505;-61
2021/08/27 06:06:12;;;;;;;1.70;1.10;;;16.30;99.90;;;;;;5094464;28;20496;-61
2021/08/27 06:08:38;;;;;;;2.03;1.10;;;16.20;99.90;;;;;;5094957;28;20524;-61
2021/08/27 06:11:05;;;;;;;1.63;0.90;;;16.60;99.90;;;;;;5095237;28;20852;-60
2021/08/27 06:13:32;;;;;;;1.58;1.00;;;16.80;99.90;;;;;;5094319;28;20848;-60
2021/08/27 06:15:59;;;;;;;1.60;0.93;;;16.90;99.90;;;;;;5093995;28;20436;-60
2021/08/27 06:18:26;;;;;;;1.33;0.80;;;16.90;99.90;;;;;;5094783;28;20445;-61
2021/08/27 06:20:53;;;;;;;1.33;0.90;;;16.90;99.90;;;;;;5093975;28;20418;-60
2021/08/27 06:23:22;;;;;;;1.70;0.90;;;16.60;99.90;;;;;;5094605;28;20425;-60
2021/08/27 06:25:49;;;;;;;1.20;0.80;;;16.40;99.90;;;;;;5094830;28;20418;-60
2021/08/27 06:28:17;;;;;;;1.70;0.73;;;16.60;99.90;;;;;;5093173;28;20426;-60
2021/08/27 06:30:44;;;;;;;1.50;0.80;;;16.50;99.90;;;;;;5093108;28;20474;-60
2021/08/27 06:33:11;;;;;;;1.17;0.80;;;16.40;99.90;;;;;;5092501;28;20518;-60
2021/08/27 06:35:37;;;;;;;1.67;0.80;;;16.70;99.90;;;;;;5094735;28;20418;-60
2021/08/27 06:38:24;;;;;;;1.30;0.70;;;16.80;99.90;;;;;;5096148;28;20511;-60
2021/08/27 06:40:54;;;;;;;1.30;0.70;;;17.10;99.90;;;;;;5095972;28;20525;-60
2021/08/27 06:43:21;;;;;;;0.90;0.60;;;16.90;99.90;;;;;;5096150;28;20771;-59
2021/08/27 06:45:48;;;;;;;1.10;0.77;;;16.80;99.90;;;;;;5096666;28;20516;-59
2021/08/27 06:48:15;;;;;;;0.90;0.70;;;16.70;99.90;;;;;;5095828;28;20503;-59
2021/08/27 06:50:42;;;;;;;0.90;0.70;;;16.90;99.90;;;;;;5093952;28;20500;-59
2021/08/27 06:53:09;;;;;;;2.20;0.70;;;16.90;99.90;;;;;;5095864;28;20444;-60
2021/08/27 06:55:37;;;;;;;0.88;0.70;;;16.90;99.90;;;;;;5097398;28;20437;-59
2021/08/27 06:58:05;;;;;;;1.95;0.70;;;17.00;99.90;;;;;;5096520;28;20436;-60
2021/08/27 07:00:33;;;;;;;1.00;0.70;;;17.20;99.90;;;;;;5097060;28;20616;-60
2021/08/27 07:03:00;;;;;;;2.50;0.80;;;17.10;99.90;;;;;;5098094;28;20425;-60
2021/08/27 07:05:28;;;;;;;0.90;0.70;;;17.30;99.90;;;;;;5096778;28;20418;-61
2021/08/27 07:07:55;;;;;;;1.00;0.70;;;17.40;99.90;;;;;;5097442;28;20413;-59
2021/08/27 07:10:22;;;;;;;1.50;0.70;;;17.60;99.90;;;;;;5096126;28;20420;-59
2021/08/27 07:12:49;;;;;;;16.95;2.50;;;17.80;99.90;;;;;;5094292;28;20425;-61
2021/08/27 07:15:19;;;;;;;1.10;0.60;;;17.70;99.90;;;;;;5095098;28;20502;-61
2021/08/27 07:17:46;;;;;;;1.10;0.70;;;17.70;99.90;;;;;;5095212;28;20429;-62
2021/08/27 07:20:14;;;;;;;1.70;0.60;;;17.60;99.90;;;;;;5094836;28;20428;-61
2021/08/27 07:22:41;;;;;;;2.60;0.70;;;17.70;99.90;;;;;;5095594;28;20424;-61
2021/08/27 07:25:10;;;;;;;1.60;0.70;;;17.60;99.90;;;;;;5095919;28;20826;-62
2021/08/27 07:27:37;;;;;;;2.00;0.70;;;17.40;99.90;;;;;;5097309;28;20874;-61
2021/08/27 07:30:04;;;;;;;0.98;0.60;;;17.50;99.90;;;;;;5095551;28;20418;-61
2021/08/27 07:32:33;;;;;;;2.40;0.60;;;17.40;99.90;;;;;;5093904;28;20721;-61
2021/08/27 07:35:00;;;;;;;0.90;0.67;;;17.50;99.90;;;;;;5095532;28;20417;-61
2021/08/27 07:37:27;;;;;;;1.30;0.70;;;17.20;99.90;;;;;;5096233;28;20550;-61
2021/08/27 07:39:54;;;;;;;1.25;0.60;;;17.00;99.90;;;;;;5095081;28;20431;-60
2021/08/27 07:42:20;;;;;;;0.70;0.60;;;17.00;99.90;;;;;;5095479;28;20708;-61
2021/08/27 07:44:47;;;;;;;0.70;0.50;;;17.00;99.90;;;;;;5095671;28;20516;-60
2021/08/27 07:47:14;;;;;;;1.87;0.50;;;16.90;99.90;;;;;;5094595;28;20512;-59
2021/08/27 07:49:42;;;;;;;1.00;0.40;;;17.00;99.90;;;;;;5093452;28;20487;-59
2021/08/27 07:52:09;;;;;;;1.10;0.47;;;17.40;99.90;;;;;;5095215;28;20417;-59
2021/08/27 07:54:37;;;;;;;0.70;0.40;;;17.40;99.90;;;;;;5095533;28;20429;-61
2021/08/27 07:57:04;;;;;;;0.60;0.40;;;17.50;99.90;;;;;;5095450;28;20479;-61
2021/08/27 07:59:31;;;;;;;1.10;0.40;;;17.90;99.90;;;;;;5096094;28;20426;-61
2021/08/27 08:01:58;;;;;;;0.55;0.40;;;18.10;99.90;;;;;;5095848;28;20467;-61
2021/08/27 08:04:25;;;;;;;0.80;0.40;;;18.10;99.90;;;;;;5095871;28;20567;-61
2021/08/27 08:06:53;;;;;;;0.90;0.40;;;18.20;99.90;;;;;;5096278;28;20822;-61
2021/08/27 08:09:20;;;;;;;0.70;0.37;;;18.30;99.90;;;;;;5093715;28;20429;-61
2021/08/27 08:11:47;;;;;;;0.60;0.40;;;18.30;99.90;;;;;;5094989;28;20421;-61
2021/08/27 08:14:14;;;;;;;1.00;0.30;;;18.40;99.90;;;;;;5093773;28;20421;-61
2021/08/27 08:16:41;;;;;;;0.60;0.40;;;18.20;99.90;;;;;;5093188;28;20421;-60
2021/08/27 08:19:10;;;;;;;0.70;0.40;;;18.30;99.90;;;;;;5093120;28;21124;-60
2021/08/27 08:21:37;;;;;;;0.50;0.32;;;18.40;99.90;;;;;;5092144;28;20414;-61
2021/08/27 08:24:06;;;;;;;0.60;0.40;;;18.50;99.90;;;;;;5091210;28;20425;-61
2021/08/27 08:26:33;;;;;;;0.68;0.30;;;18.70;99.90;;;;;;5092265;28;20520;-61
2021/08/27 08:29:01;;;;;;;1.00;0.40;;;18.80;99.90;;;;;;5092236;28;20430;-61
2021/08/27 08:31:29;;;;;;;1.00;0.40;;;18.80;99.90;;;;;;5092123;28;20414;-61
2021/08/27 08:33:56;;;;;;;0.85;0.40;;;18.90;99.90;;;;;;5093159;28;20428;-60
2021/08/27 08:36:24;;;;;;;0.90;0.30;;;18.90;99.90;;;;;;5092452;28;20425;-61
2021/08/27 08:38:52;;;;;;;1.30;0.40;;;18.80;99.90;;;;;;5094694;28;20434;-61
2021/08/27 08:41:22;;;;;;;0.60;0.40;;;18.90;99.90;;;;;;5093928;28;20504;-61
2021/08/27 08:43:50;;;;;;;0.50;0.30;;;18.90;99.90;;;;;;5103343;28;20439;-61
2021/08/27 08:46:17;;;;;;;1.00;0.40;;;19.00;99.90;;;;;;5112147;28;20508;-62
2021/08/27 08:48:46;;;;;;;0.80;0.40;;;18.90;99.90;;;;;;5112597;28;20416;-61
2021/08/27 08:51:14;;;;;;;0.43;0.30;;;18.90;99.90;;;;;;5113251;28;20423;-61
2021/08/27 08:53:45;;;;;;;0.80;0.40;;;18.90;99.90;;;;;;5114006;28;20430;-61
2021/08/27 08:56:13;;;;;;;0.50;0.40;;;18.90;99.90;;;;;;5114727;28;20877;-61
2021/08/27 08:58:41;;;;;;;0.50;0.40;;;18.90;99.90;;;;;;5114558;28;20715;-61
2021/08/27 09:01:12;;;;;;;0.52;0.30;;;18.90;99.90;;;;;;5115572;28;20719;-58
2021/08/27 09:03:39;;;;;;;0.70;0.40;;;18.80;99.90;;;;;;5113234;28;20435;-61
2021/08/27 09:06:07;;;;;;;0.60;0.30;;;18.90;99.90;;;;;;5105467;28;20839;-61
2021/08/27 09:08:37;;;;;;;0.50;0.30;;;19.10;99.90;;;;;;5096425;28;20845;-61
2021/08/27 09:11:14;;;;;;;0.50;0.32;;;18.90;99.90;;;;;;5095963;28;20422;-61
2021/08/27 09:13:43;;;;;;;0.57;0.40;;;18.70;99.90;;;;;;5094128;28;20452;-60
2021/08/27 09:16:11;;;;;;;1.40;0.40;;;18.40;99.90;;;;;;5098405;28;20892;-58
2021/08/27 09:18:39;;;;;;;1.00;0.30;;;18.40;99.90;;;;;;5104743;28;20440;-61
2021/08/27 09:21:29;;;;;;;0.60;0.30;;;18.30;99.90;;;;;;5092115;28;20924;-60
2021/08/27 09:24:21;;;;;;;1.60;0.40;;;18.30;99.90;;;;;;5093789;28;20425;-59
2021/08/27 09:26:51;;;;;;;1.20;0.30;;;18.50;99.90;;;;;;5075364;28;20426;-60
2021/08/27 09:29:38;;;;;;;0.57;0.40;;;18.60;99.90;;;;;;5092087;28;20421;-60
2021/08/27 09:32:19;;;;;;;0.50;0.30;;;18.80;99.90;;;;;;5090623;28;20425;-59
2021/08/27 09:34:46;;;;;;;0.50;0.30;;;18.80;99.90;;;;;;5090233;28;20837;-59
2021/08/27 09:37:13;;;;;;;0.50;0.30;;;18.80;99.90;;;;;;5090144;28;20843;-59
2021/08/27 09:39:40;;;;;;;0.70;0.40;;;18.80;99.90;;;;;;5090812;28;20845;-60
2021/08/27 09:42:07;;;;;;;0.90;0.30;;;18.80;99.90;;;;;;5090039;28;20686;-60
2021/08/27 09:44:37;;;;;;;0.50;0.30;;;18.40;99.90;;;;;;5087767;28;21264;-60
2021/08/27 09:47:08;;;;;;;0.90;0.40;;;18.80;99.90;;;;;;5090808;28;20793;-60
2021/08/27 09:49:37;;;;;;;0.50;0.40;;;19.30;99.90;;;;;;5090267;28;20432;-60
2021/08/27 09:52:06;;;;;;;0.63;0.40;;;19.60;99.90;;;;;;5089750;28;20502;-59
2021/08/27 09:54:34;;;;;;;0.70;0.40;;;19.60;99.90;;;;;;5091342;28;20429;-59
2021/08/27 09:57:03;;;;;;;0.60;0.30;;;19.70;99.90;;;;;;5091904;28;20414;-59
2021/08/27 09:59:36;;;;;;;0.85;0.47;;;19.70;99.90;;;;;;5092361;28;20410;-62
2021/08/27 10:02:06;;;;;;;0.50;0.40;;;19.30;99.90;;;;;;5093316;28;20841;-58
2021/08/27 10:04:33;;;;;;;0.60;0.40;;;19.40;99.90;;;;;;5093468;28;20430;-59
2021/08/27 10:07:01;;;;;;;1.10;0.40;;;19.40;99.90;;;;;;5093683;28;20513;-58
2021/08/27 10:09:45;;;;;;;1.00;0.40;;;19.20;99.90;;;;;;5093607;28;20428;-58
2021/08/27 10:12:13;;;;;;;0.60;0.40;;;19.20;99.90;;;;;;5093780;28;20904;-59
2021/08/27 10:14:40;;;;;;;0.90;0.40;;;19.20;99.90;;;;;;5093077;28;20465;-59
2021/08/27 10:17:08;;;;;;;2.20;0.50;;;19.40;99.90;;;;;;5092696;28;20497;-59
2021/08/27 10:19:35;;;;;;;0.60;0.40;;;19.60;99.90;;;;;;5092373;28;21003;-59
2021/08/27 10:22:02;;;;;;;1.10;0.50;;;19.80;99.90;;;;;;5090051;28;20424;-59
2021/08/27 10:24:29;;;;;;;0.80;0.40;;;20.20;99.90;;;;;;5091351;28;20909;-59
2021/08/27 10:26:57;;;;;;;2.10;0.40;;;19.90;99.90;;;;;;5092743;28;20416;-60
2021/08/27 10:29:24;;;;;;;0.50;0.30;;;19.50;99.90;;;;;;5090755;28;20426;-60
2021/08/27 10:31:52;;;;;;;0.50;0.30;;;19.30;99.90;;;;;;5090522;28;20436;-60
2021/08/27 10:34:39;;;;;;;0.60;0.40;;;19.30;99.90;;;;;;5090605;28;20888;-61
2021/08/27 10:37:06;;;;;;;0.68;0.40;;;19.10;99.90;;;;;;5091784;28;20464;-60
2021/08/27 10:39:45;;;;;;;0.90;0.47;;;19.10;99.90;;;;;;5093085;28;20473;-60
2021/08/27 10:42:46;;;;;;;1.30;0.50;;;19.30;99.90;;;;;;5092168;28;20424;-60
2021/08/27 10:45:13;;;;;;;0.90;0.50;;;19.30;99.90;;;;;;5094032;28;20418;-61
2021/08/27 10:48:09;;;;;;;0.90;0.50;;;19.40;99.90;;;;;;5093529;28;20454;-60
2021/08/27 10:50:38;;;;;;;1.20;0.50;;;19.40;99.90;;;;;;5097293;28;20475;-60
2021/08/27 10:53:27;;;;;;;1.00;0.50;;;19.40;99.90;;;;;;5090392;28;20434;-60
2021/08/27 10:55:58;;;;;;;1.70;0.40;;;19.40;99.90;;;;;;5104288;28;20420;-60
2021/08/27 10:58:40;;;;;;;0.70;0.40;;;19.40;99.90;;;;;;5100203;28;20528;-60
2021/08/27 11:01:07;;;;;;;1.60;0.40;;;19.30;99.90;;;;;;5088420;28;20800;-58
2021/08/27 11:04:00;;;;;;;0.60;0.40;;;19.50;99.90;;;;;;5088781;28;20861;-59
2021/08/27 11:06:28;;;;;;;1.00;0.40;;;19.80;99.90;;;;;;5085399;28;20422;-59
2021/08/27 11:09:13;;;;;;;0.60;0.40;;;20.20;99.90;;;;;;5088255;28;20422;-59
2021/08/27 11:11:40;;;;;;;1.42;0.43;;;20.50;99.90;;;;;;5087624;28;20512;-60
2021/08/27 11:14:15;;;;;;;0.73;0.40;;;20.20;99.90;;;;;;5088902;28;20727;-61
2021/08/27 11:16:43;;;;;;;0.88;0.40;;;19.80;99.90;;;;;;5088866;28;20426;-61
2021/08/27 11:19:25;;;;;;;1.10;0.40;;;19.80;99.90;;;;;;5087706;28;20440;-61
2021/08/27 11:21:58;;;;;;;0.90;0.50;;;19.70;99.90;;;;;;5091292;28;20869;-59
2021/08/27 11:24:27;;;;;;;1.10;0.40;;;19.80;99.90;;;;;;5095305;28;20469;-59
2021/08/27 11:27:01;;;;;;;0.70;0.40;;;19.90;99.90;;;;;;5096445;28;20899;-59
2021/08/27 11:29:30;;;;;;;1.30;0.40;;;19.90;99.90;;;;;;5094960;28;20490;-61
2021/08/27 11:31:57;;;;;;;0.60;0.30;;;19.90;99.90;;;;;;5094818;28;20432;-62
2021/08/27 11:34:25;;;;;;;0.90;0.60;;;20.00;99.90;;;;;;5101604;28;20455;-61
2021/08/27 11:36:52;;;;;;;1.17;0.50;;;19.90;99.90;;;;;;5103302;28;20500;-61
2021/08/27 11:39:23;;;;;;;1.60;0.40;;;20.10;99.90;;;;;;5100587;28;20729;-61
2021/08/27 11:41:50;;;;;;;1.10;0.50;;;20.20;99.90;;;;;;5104143;28;20741;-60
2021/08/27 11:44:20;;;;;;;0.90;0.50;;;20.30;99.90;;;;;;5109156;28;20420;-60
2021/08/27 11:46:48;;;;;;;0.80;0.40;;;20.70;99.90;;;;;;5112953;28;20420;-60
2021/08/27 11:49:20;;;;;;;0.60;0.40;;;21.60;99.90;;;;;;5101737;28;20809;-60
2021/08/27 11:52:03;;;;;;;1.40;0.40;;;22.20;99.90;;;;;;5093608;28;20421;-60
2021/08/27 11:54:31;;;;;;;0.77;0.40;;;21.70;99.90;;;;;;5093680;28;20430;-60
2021/08/27 11:56:58;;;;;;;0.60;0.40;;;20.80;99.90;;;;;;5094902;28;20414;-60
2021/08/27 11:59:27;;;;;;;1.20;0.50;;;20.60;99.90;;;;;;5095097;28;20624;-60
2021/08/27 12:01:55;;;;;;;1.40;0.40;;;20.70;99.90;;;;;;5093708;28;20426;-60
2021/08/27 12:04:30;;;;;;;0.80;0.40;;;20.70;99.90;;;;;;5093974;28;20491;-66
2021/08/27 12:07:07;;;;;;;0.57;0.35;;;20.90;99.90;;;;;;5093035;28;20519;-61
2021/08/27 12:09:36;;;;;;;0.90;0.50;;;20.80;99.90;;;;;;5092943;28;20417;-60
2021/08/27 12:12:04;;;;;;;0.80;0.40;;;20.50;99.90;;;;;;5092253;28;20509;-60
2021/08/27 12:14:53;;;;;;;0.80;0.40;;;20.30;99.90;;;;;;5093731;28;20426;-60
2021/08/27 12:17:23;;;;;;;0.70;0.30;;;20.00;99.90;;;;;;5090975;28;20508;-61
2021/08/27 12:19:51;;;;;;;1.10;0.40;;;20.50;99.90;;;;;;5091992;28;20473;-60
2021/08/27 12:22:20;;;;;;;0.87;0.40;;;21.20;99.90;;;;;;5093032;28;20449;-60
2021/08/27 12:24:52;;;;;;;1.88;0.40;;;22.00;99.90;;;;;;5092797;28;20482;-60
2021/08/27 12:27:19;;;;;;;0.65;0.35;;;22.40;99.90;;;;;;5093013;28;20469;-60
2021/08/27 12:29:47;;;;;;;0.68;0.40;;;22.20;99.90;;;;;;5093538;28;20449;-60
2021/08/27 12:32:17;;;;;;;0.70;0.40;;;21.80;99.90;;;;;;5093310;28;20425;-61
2021/08/27 12:34:46;;;;;;;1.35;0.30;;;21.60;99.90;;;;;;5092560;28;20425;-61
2021/08/27 12:37:13;;;;;;;1.30;0.40;;;21.10;99.90;;;;;;5092135;28;20417;-61
2021/08/27 12:39:39;;;;;;;0.70;0.40;;;21.00;99.90;;;;;;5094085;28;20456;-61
2021/08/27 12:42:19;;;;;;;0.70;0.40;;;21.20;99.90;;;;;;5092293;28;20424;-61
2021/08/27 12:45:04;;;;;;;0.70;0.40;;;21.70;99.90;;;;;;5091385;28;20453;-61
2021/08/27 12:47:36;;;;;;;1.30;0.40;;;21.70;99.90;;;;;;5090818;28;20417;-61
2021/08/27 12:50:07;;;;;;;1.15;0.40;;;21.80;99.90;;;;;;5088654;28;20478;-60
2021/08/27 12:52:34;;;;;;;0.70;0.30;;;22.20;99.90;;;;;;5092815;28;20418;-60
2021/08/27 12:55:01;;;;;;;1.10;0.30;;;22.60;99.90;;;;;;5092840;28;20429;-60
2021/08/27 12:57:29;;;;;;;1.00;0.40;;;22.50;99.90;;;;;;5084874;28;20420;-62
2021/08/27 12:59:58;;;;;;;1.10;0.32;;;22.30;99.90;;;;;;5089456;28;20541;-61